sensor_id;sensor_type;location;lat;lon;timestamp;temperature;humidity
1075;DHT22;526;51.392;12.448;2023-06-05T04:00:57;10.40;97.20
1075;DHT22;526;51.392;12.448;2023-06-05T04:03:23;10.40;97.00
1075;DHT22;526;51.392;12.448;2023-06-05T04:05:57;10.40;97.10
1075;DHT22;526;51.392;12.448;2023-06-05T04:08:22;10.50;97.20
1075;DHT22;526;51.392;12.448;2023-06-05T04:10:58;10.50;97.10
1075;DHT22;526;51.392;12.448;2023-06-05T04:13:32;10.50;97.10
1075;DHT22;526;51.392;12.448;2023-06-05T04:16:17;10.50;97.30
1075;DHT22;526;51.392;12.448;2023-06-05T04:18:43;10.50;97.30
1075;DHT22;526;51.392;12.448;2023-06-05T04:21:08;10.60;97.30
1075;DHT22;526;51.392;12.448;2023-06-05T04:23:34;10.60;97.30
1075;DHT22;526;51.392;12.448;2023-06-05T04:25:59;10.60;97.30
1075;DHT22;526;51.392;12.448;2023-06-05T04:28:25;10.70;97.30
1075;DHT22;526;51.392;12.448;2023-06-05T04:30:51;10.70;97.30
1075;DHT22;526;51.392;12.448;2023-06-05T04:33:16;10.70;97.30
1075;DHT22;526;51.392;12.448;2023-06-05T04:35:42;10.70;97.30
1075;DHT22;526;51.392;12.448;2023-06-05T04:38:07;10.70;97.30
1075;DHT22;526;51.392;12.448;2023-06-05T04:40:33;10.70;97.30
1075;DHT22;526;51.392;12.448;2023-06-05T04:42:59;10.80;97.30
1075;DHT22;526;51.392;12.448;2023-06-05T04:45:24;10.80;97.30
1075;DHT22;526;51.392;12.448;2023-06-05T04:47:50;10.80;97.30
1075;DHT22;526;51.392;12.448;2023-06-05T04:50:24;10.90;97.30
1075;DHT22;526;51.392;12.448;2023-06-05T04:52:51;10.90;97.30
1075;DHT22;526;51.392;12.448;2023-06-05T04:55:18;10.90;97.30
1075;DHT22;526;51.392;12.448;2023-06-05T04:57:44;11.00;97.30
1075;DHT22;526;51.392;12.448;2023-06-05T05:00:10;11.00;97.30
1075;DHT22;526;51.392;12.448;2023-06-05T05:02:36;11.00;97.30
1075;DHT22;526;51.392;12.448;2023-06-05T05:05:02;11.10;97.30
1075;DHT22;526;51.392;12.448;2023-06-05T05:07:27;11.10;97.30
1075;DHT22;526;51.392;12.448;2023-06-05T05:09:53;11.10;97.30
1075;DHT22;526;51.392;12.448;2023-06-05T05:12:19;11.20;97.20
1075;DHT22;526;51.392;12.448;2023-06-05T05:14:45;11.20;97.10
1075;DHT22;526;51.392;12.448;2023-06-05T05:17:11;11.30;96.90
1075;DHT22;526;51.392;12.448;2023-06-05T05:19:36;11.40;96.60
1075;DHT22;526;51.392;12.448;2023-06-05T05:22:06;11.50;96.50
1075;DHT22;526;51.392;12.448;2023-06-05T05:24:31;11.60;96.50
1075;DHT22;526;51.392;12.448;2023-06-05T05:26:57;11.80;96.50
1075;DHT22;526;51.392;12.448;2023-06-05T05:29:22;11.80;96.20
1075;DHT22;526;51.392;12.448;2023-06-05T05:31:48;11.90;95.90
1075;DHT22;526;51.392;12.448;2023-06-05T05:34:13;12.10;95.70
1075;DHT22;526;51.392;12.448;2023-06-05T05:36:39;12.20;95.40
1075;DHT22;526;51.392;12.448;2023-06-05T05:39:04;12.30;95.20
1075;DHT22;526;51.392;12.448;2023-06-05T05:41:30;12.50;95.00
1075;DHT22;526;51.392;12.448;2023-06-05T05:43:55;12.60;94.80
1075;DHT22;526;51.392;12.448;2023-06-05T05:46:21;12.70;94.30
1075;DHT22;526;51.392;12.448;2023-06-05T05:48:46;12.80;93.90
1075;DHT22;526;51.392;12.448;2023-06-05T05:51:12;13.00;93.40
1075;DHT22;526;51.392;12.448;2023-06-05T05:53:38;13.10;92.90
1075;DHT22;526;51.392;12.448;2023-06-05T05:56:04;13.30;91.70
1075;DHT22;526;51.392;12.448;2023-06-05T05:58:30;13.40;91.40
1075;DHT22;526;51.392;12.448;2023-06-05T06:00:56;13.60;91.30
1075;DHT22;526;51.392;12.448;2023-06-05T06:03:22;13.70;91.20
1075;DHT22;526;51.392;12.448;2023-06-05T06:05:48;13.80;90.80
1075;DHT22;526;51.392;12.448;2023-06-05T06:08:14;13.80;90.60
1075;DHT22;526;51.392;12.448;2023-06-05T06:10:40;13.90;90.50
1075;DHT22;526;51.392;12.448;2023-06-05T06:13:06;14.10;90.10
1075;DHT22;526;51.392;12.448;2023-06-05T06:15:32;14.20;89.70
1075;DHT22;526;51.392;12.448;2023-06-05T06:17:57;14.30;89.30
1075;DHT22;526;51.392;12.448;2023-06-05T06:20:25;14.40;88.90
1075;DHT22;526;51.392;12.448;2023-06-05T06:22:50;14.60;88.80
1075;DHT22;526;51.392;12.448;2023-06-05T06:25:17;14.70;88.90
1075;DHT22;526;51.392;12.448;2023-06-05T06:27:46;14.80;89.10
1075;DHT22;526;51.392;12.448;2023-06-05T06:30:16;14.80;89.00
1075;DHT22;526;51.392;12.448;2023-06-05T06:32:42;14.90;87.20
1075;DHT22;526;51.392;12.448;2023-06-05T06:35:07;15.10;87.20
1075;DHT22;526;51.392;12.448;2023-06-05T06:37:33;15.20;87.30
1075;DHT22;526;51.392;12.448;2023-06-05T06:39:59;15.20;87.30
1075;DHT22;526;51.392;12.448;2023-06-05T06:42:24;15.30;86.70
1075;DHT22;526;51.392;12.448;2023-06-05T06:44:50;15.40;86.60
1075;DHT22;526;51.392;12.448;2023-06-05T06:47:23;15.50;86.90
1075;DHT22;526;51.392;12.448;2023-06-05T06:49:50;15.60;87.30
1075;DHT22;526;51.392;12.448;2023-06-05T06:52:16;15.70;87.70
1075;DHT22;526;51.392;12.448;2023-06-05T06:54:44;15.70;87.40
1075;DHT22;526;51.392;12.448;2023-06-05T06:57:09;15.80;87.20
1075;DHT22;526;51.392;12.448;2023-06-05T06:59:35;15.90;86.90
1075;DHT22;526;51.392;12.448;2023-06-05T07:04:42;16.00;85.80
1075;DHT22;526;51.392;12.448;2023-06-05T07:07:13;16.10;85.80
1075;DHT22;526;51.392;12.448;2023-06-05T07:09:45;16.10;85.40
1075;DHT22;526;51.392;12.448;2023-06-05T07:12:13;16.20;85.20
1075;DHT22;526;51.392;12.448;2023-06-05T07:14:39;16.20;85.10
1075;DHT22;526;51.392;12.448;2023-06-05T07:17:05;16.30;85.00
1075;DHT22;526;51.392;12.448;2023-06-05T07:19:32;16.30;84.30
1075;DHT22;526;51.392;12.448;2023-06-05T07:21:59;16.40;84.50
1075;DHT22;526;51.392;12.448;2023-06-05T07:24:25;16.50;83.70
1075;DHT22;526;51.392;12.448;2023-06-05T07:26:55;16.60;83.30
1075;DHT22;526;51.392;12.448;2023-06-05T07:29:21;16.70;83.10
1075;DHT22;526;51.392;12.448;2023-06-05T07:31:49;16.80;82.90
1075;DHT22;526;51.392;12.448;2023-06-05T07:34:14;16.90;83.10
1075;DHT22;526;51.392;12.448;2023-06-05T07:36:40;17.00;83.40
1075;DHT22;526;51.392;12.448;2023-06-05T07:39:06;17.00;83.80
1075;DHT22;526;51.392;12.448;2023-06-05T07:41:32;17.10;83.50
1075;DHT22;526;51.392;12.448;2023-06-05T07:43:58;17.20;83.90
1075;DHT22;526;51.392;12.448;2023-06-05T07:46:23;17.30;83.70
1075;DHT22;526;51.392;12.448;2023-06-05T07:48:49;17.40;84.30
1075;DHT22;526;51.392;12.448;2023-06-05T07:51:14;17.50;84.60
1075;DHT22;526;51.392;12.448;2023-06-05T07:53:43;17.70;85.10
1075;DHT22;526;51.392;12.448;2023-06-05T07:56:09;17.70;85.20
1075;DHT22;526;51.392;12.448;2023-06-05T07:58:37;17.80;84.50
1075;DHT22;526;51.392;12.448;2023-06-05T08:01:02;18.00;82.70
1075;DHT22;526;51.392;12.448;2023-06-05T08:03:32;18.10;82.00
1075;DHT22;526;51.392;12.448;2023-06-05T08:05:58;18.30;81.80
1075;DHT22;526;51.392;12.448;2023-06-05T08:08:23;18.40;80.40
1075;DHT22;526;51.392;12.448;2023-06-05T08:10:49;18.60;79.90
1075;DHT22;526;51.392;12.448;2023-06-05T08:13:15;18.70;80.10
1075;DHT22;526;51.392;12.448;2023-06-05T08:15:40;18.90;80.50
1075;DHT22;526;51.392;12.448;2023-06-05T08:18:06;19.00;80.40
1075;DHT22;526;51.392;12.448;2023-06-05T08:20:31;19.10;81.30
1075;DHT22;526;51.392;12.448;2023-06-05T08:22:57;19.40;82.20
1075;DHT22;526;51.392;12.448;2023-06-05T08:25:23;19.60;79.90
1075;DHT22;526;51.392;12.448;2023-06-05T08:27:49;19.90;78.60
1075;DHT22;526;51.392;12.448;2023-06-05T08:30:15;20.10;78.50
1075;DHT22;526;51.392;12.448;2023-06-05T08:32:41;20.30;78.10
1075;DHT22;526;51.392;12.448;2023-06-05T08:35:07;20.50;77.70
1075;DHT22;526;51.392;12.448;2023-06-05T08:37:32;20.70;75.70
1075;DHT22;526;51.392;12.448;2023-06-05T08:39:58;20.80;75.40
1075;DHT22;526;51.392;12.448;2023-06-05T08:42:26;20.90;75.40
1075;DHT22;526;51.392;12.448;2023-06-05T08:44:54;21.00;73.60
1075;DHT22;526;51.392;12.448;2023-06-05T08:47:22;21.20;73.40
1075;DHT22;526;51.392;12.448;2023-06-05T08:49:51;21.30;72.70
1075;DHT22;526;51.392;12.448;2023-06-05T08:52:19;21.30;73.80
1075;DHT22;526;51.392;12.448;2023-06-05T08:54:47;21.50;74.10
1075;DHT22;526;51.392;12.448;2023-06-05T08:57:12;21.60;73.70
1075;DHT22;526;51.392;12.448;2023-06-05T08:59:39;21.80;72.30
1075;DHT22;526;51.392;12.448;2023-06-05T09:02:05;21.90;71.30
1075;DHT22;526;51.392;12.448;2023-06-05T09:04:31;22.00;70.40
1075;DHT22;526;51.392;12.448;2023-06-05T09:06:57;22.10;70.60
1075;DHT22;526;51.392;12.448;2023-06-05T09:09:24;22.20;69.70
1075;DHT22;526;51.392;12.448;2023-06-05T09:12:07;22.20;69.90
1075;DHT22;526;51.392;12.448;2023-06-05T09:14:33;22.20;69.00
1075;DHT22;526;51.392;12.448;2023-06-05T09:17:00;22.20;68.60
1075;DHT22;526;51.392;12.448;2023-06-05T09:19:44;22.20;69.50
1075;DHT22;526;51.392;12.448;2023-06-05T09:22:13;22.20;69.60
1075;DHT22;526;51.392;12.448;2023-06-05T09:24:40;22.30;70.40
1075;DHT22;526;51.392;12.448;2023-06-05T09:27:16;22.40;69.90
1075;DHT22;526;51.392;12.448;2023-06-05T09:29:42;22.50;69.80
1075;DHT22;526;51.392;12.448;2023-06-05T09:34:40;22.70;69.50
1075;DHT22;526;51.392;12.448;2023-06-05T09:37:08;22.80;70.10
1075;DHT22;526;51.392;12.448;2023-06-05T09:39:35;23.00;68.40
1075;DHT22;526;51.392;12.448;2023-06-05T09:42:02;23.10;68.20
1075;DHT22;526;51.392;12.448;2023-06-05T09:44:29;23.20;68.00
1075;DHT22;526;51.392;12.448;2023-06-05T09:47:00;23.20;66.10
1075;DHT22;526;51.392;12.448;2023-06-05T09:49:31;23.20;67.80
1075;DHT22;526;51.392;12.448;2023-06-05T09:51:58;23.30;68.50
1075;DHT22;526;51.392;12.448;2023-06-05T09:54:26;23.40;68.70
1075;DHT22;526;51.392;12.448;2023-06-05T09:57:02;23.50;68.10
1075;DHT22;526;51.392;12.448;2023-06-05T09:59:30;23.60;67.50
1075;DHT22;526;51.392;12.448;2023-06-05T10:01:59;23.60;66.80
1075;DHT22;526;51.392;12.448;2023-06-05T10:04:27;23.60;67.60
1075;DHT22;526;51.392;12.448;2023-06-05T10:06:57;23.60;66.80
1075;DHT22;526;51.392;12.448;2023-06-05T10:09:24;23.60;66.30
1075;DHT22;526;51.392;12.448;2023-06-05T10:11:50;23.70;66.60
1075;DHT22;526;51.392;12.448;2023-06-05T10:14:18;23.80;65.80
1075;DHT22;526;51.392;12.448;2023-06-05T10:16:48;23.90;65.80
1075;DHT22;526;51.392;12.448;2023-06-05T10:19:15;23.90;65.60
1075;DHT22;526;51.392;12.448;2023-06-05T10:21:42;23.90;64.80
1075;DHT22;526;51.392;12.448;2023-06-05T10:24:12;23.90;65.60
1075;DHT22;526;51.392;12.448;2023-06-05T10:29:54;23.90;65.10
1075;DHT22;526;51.392;12.448;2023-06-05T10:37:56;24.30;64.60
1075;DHT22;526;51.392;12.448;2023-06-05T10:40:25;24.40;65.00
1075;DHT22;526;51.392;12.448;2023-06-05T10:42:51;24.60;66.50
1075;DHT22;526;51.392;12.448;2023-06-05T10:45:30;24.80;64.80
1075;DHT22;526;51.392;12.448;2023-06-05T10:47:57;24.90;63.90
1075;DHT22;526;51.392;12.448;2023-06-05T10:50:23;24.90;63.90
1075;DHT22;526;51.392;12.448;2023-06-05T10:52:51;24.90;63.40
1075;DHT22;526;51.392;12.448;2023-06-05T10:55:17;24.70;63.90
1075;DHT22;526;51.392;12.448;2023-06-05T11:00:31;24.50;64.20
1075;DHT22;526;51.392;12.448;2023-06-05T11:02:57;24.40;65.20
1075;DHT22;526;51.392;12.448;2023-06-05T11:05:23;24.40;65.70
1075;DHT22;526;51.392;12.448;2023-06-05T11:08:13;24.40;65.70
1075;DHT22;526;51.392;12.448;2023-06-05T11:11:06;24.50;65.10
1075;DHT22;526;51.392;12.448;2023-06-05T11:13:54;24.60;66.60
1075;DHT22;526;51.392;12.448;2023-06-05T11:16:33;24.90;65.40
1075;DHT22;526;51.392;12.448;2023-06-05T11:22:09;25.10;64.40
1075;DHT22;526;51.392;12.448;2023-06-05T11:24:36;25.20;65.00
1075;DHT22;526;51.392;12.448;2023-06-05T11:27:03;25.40;66.10
1075;DHT22;526;51.392;12.448;2023-06-05T11:29:29;25.60;66.20
1075;DHT22;526;51.392;12.448;2023-06-05T11:31:55;25.70;65.60
1075;DHT22;526;51.392;12.448;2023-06-05T11:34:21;25.80;65.30
1075;DHT22;526;51.392;12.448;2023-06-05T11:36:47;25.90;66.40
1075;DHT22;526;51.392;12.448;2023-06-05T11:39:13;26.00;66.00
1075;DHT22;526;51.392;12.448;2023-06-05T11:41:49;26.10;65.60
1075;DHT22;526;51.392;12.448;2023-06-05T11:44:32;26.10;65.20
1075;DHT22;526;51.392;12.448;2023-06-05T11:46:57;26.20;65.30
1075;DHT22;526;51.392;12.448;2023-06-05T11:49:27;26.30;65.20
1075;DHT22;526;51.392;12.448;2023-06-05T11:51:54;26.40;65.00
1075;DHT22;526;51.392;12.448;2023-06-05T11:54:27;26.50;64.30
1075;DHT22;526;51.392;12.448;2023-06-05T11:56:57;26.50;62.90
1075;DHT22;526;51.392;12.448;2023-06-05T11:59:23;26.50;62.30
1075;DHT22;526;51.392;12.448;2023-06-05T12:01:49;26.50;63.50
1075;DHT22;526;51.392;12.448;2023-06-05T12:04:16;26.50;63.80
1075;DHT22;526;51.392;12.448;2023-06-05T12:06:42;26.50;62.90
1075;DHT22;526;51.392;12.448;2023-06-05T12:09:11;26.50;64.20
1075;DHT22;526;51.392;12.448;2023-06-05T12:11:38;26.60;63.10
1075;DHT22;526;51.392;12.448;2023-06-05T12:14:03;26.60;63.90
1075;DHT22;526;51.392;12.448;2023-06-05T12:16:37;26.70;62.60
1075;DHT22;526;51.392;12.448;2023-06-05T12:19:13;26.70;62.70
1075;DHT22;526;51.392;12.448;2023-06-05T12:21:39;26.70;63.20
1075;DHT22;526;51.392;12.448;2023-06-05T12:24:05;26.70;63.70
1075;DHT22;526;51.392;12.448;2023-06-05T12:26:50;26.80;63.60
1075;DHT22;526;51.392;12.448;2023-06-05T12:29:19;27.00;62.70
1075;DHT22;526;51.392;12.448;2023-06-05T12:31:46;27.10;63.50
1075;DHT22;526;51.392;12.448;2023-06-05T12:34:11;27.30;64.10
1075;DHT22;526;51.392;12.448;2023-06-05T12:36:39;27.50;63.80
1075;DHT22;526;51.392;12.448;2023-06-05T12:39:05;27.60;63.70
1075;DHT22;526;51.392;12.448;2023-06-05T12:41:33;27.80;63.30
1075;DHT22;526;51.392;12.448;2023-06-05T12:44:03;27.90;62.90
1075;DHT22;526;51.392;12.448;2023-06-05T12:46:34;28.00;62.90
1075;DHT22;526;51.392;12.448;2023-06-05T12:49:01;28.20;62.40
1075;DHT22;526;51.392;12.448;2023-06-05T12:51:27;28.30;62.30
1075;DHT22;526;51.392;12.448;2023-06-05T12:53:56;28.40;62.20
1075;DHT22;526;51.392;12.448;2023-06-05T12:56:23;28.40;63.10
1075;DHT22;526;51.392;12.448;2023-06-05T12:58:56;28.20;60.20
1075;DHT22;526;51.392;12.448;2023-06-05T13:01:23;27.90;60.60
1075;DHT22;526;51.392;12.448;2023-06-05T13:03:49;27.60;60.90
1075;DHT22;526;51.392;12.448;2023-06-05T13:06:15;27.20;60.50
1075;DHT22;526;51.392;12.448;2023-06-05T13:08:41;26.90;61.30
1075;DHT22;526;51.392;12.448;2023-06-05T13:11:06;26.70;62.10
1075;DHT22;526;51.392;12.448;2023-06-05T13:13:32;26.40;61.80
1075;DHT22;526;51.392;12.448;2023-06-05T13:16:01;26.20;62.00
1075;DHT22;526;51.392;12.448;2023-06-05T13:18:27;26.00;62.40
1075;DHT22;526;51.392;12.448;2023-06-05T13:20:54;25.80;63.60
1075;DHT22;526;51.392;12.448;2023-06-05T13:23:19;25.80;64.00
1075;DHT22;526;51.392;12.448;2023-06-05T13:25:45;25.70;65.20
1075;DHT22;526;51.392;12.448;2023-06-05T13:28:10;25.70;65.00
1075;DHT22;526;51.392;12.448;2023-06-05T13:30:36;25.80;66.20
1075;DHT22;526;51.392;12.448;2023-06-05T13:33:01;25.90;65.90
1075;DHT22;526;51.392;12.448;2023-06-05T13:35:27;26.00;65.60
1075;DHT22;526;51.392;12.448;2023-06-05T13:37:52;26.20;66.20
1075;DHT22;526;51.392;12.448;2023-06-05T13:40:20;26.50;66.50
1075;DHT22;526;51.392;12.448;2023-06-05T13:42:45;26.90;65.20
1075;DHT22;526;51.392;12.448;2023-06-05T13:45:11;27.30;64.50
1075;DHT22;526;51.392;12.448;2023-06-05T13:47:37;27.60;64.80
1075;DHT22;526;51.392;12.448;2023-06-05T13:50:03;27.90;62.40
1075;DHT22;526;51.392;12.448;2023-06-05T13:52:29;28.10;61.90
1075;DHT22;526;51.392;12.448;2023-06-05T13:54:54;28.20;62.40
1075;DHT22;526;51.392;12.448;2023-06-05T13:57:20;28.40;63.00
1075;DHT22;526;51.392;12.448;2023-06-05T13:59:45;28.50;62.00
1075;DHT22;526;51.392;12.448;2023-06-05T14:02:11;28.50;61.20
1075;DHT22;526;51.392;12.448;2023-06-05T14:04:37;28.20;60.30
1075;DHT22;526;51.392;12.448;2023-06-05T14:07:04;27.80;61.20
1075;DHT22;526;51.392;12.448;2023-06-05T14:09:29;27.50;62.70
1075;DHT22;526;51.392;12.448;2023-06-05T14:11:56;27.40;62.80
1075;DHT22;526;51.392;12.448;2023-06-05T14:14:23;27.50;62.60
1075;DHT22;526;51.392;12.448;2023-06-05T14:16:49;27.60;61.80
1075;DHT22;526;51.392;12.448;2023-06-05T14:19:14;27.70;61.50
1075;DHT22;526;51.392;12.448;2023-06-05T14:21:40;27.70;62.00
1075;DHT22;526;51.392;12.448;2023-06-05T14:24:07;27.90;62.80
1075;DHT22;526;51.392;12.448;2023-06-05T14:26:33;28.10;62.40
1075;DHT22;526;51.392;12.448;2023-06-05T14:28:58;28.30;61.50
1075;DHT22;526;51.392;12.448;2023-06-05T14:31:24;28.30;60.70
1075;DHT22;526;51.392;12.448;2023-06-05T14:33:51;28.30;60.50
1075;DHT22;526;51.392;12.448;2023-06-05T14:36:16;28.10;60.70
1075;DHT22;526;51.392;12.448;2023-06-05T14:38:42;28.10;62.00
1075;DHT22;526;51.392;12.448;2023-06-05T14:41:07;28.20;61.70
1075;DHT22;526;51.392;12.448;2023-06-05T14:43:33;28.00;60.10
1075;DHT22;526;51.392;12.448;2023-06-05T14:45:58;27.80;60.50
1075;DHT22;526;51.392;12.448;2023-06-05T14:48:25;27.50;60.40
1075;DHT22;526;51.392;12.448;2023-06-05T14:50:51;27.30;61.20
1075;DHT22;526;51.392;12.448;2023-06-05T14:53:18;27.20;61.20
1075;DHT22;526;51.392;12.448;2023-06-05T14:55:44;27.10;61.00
1075;DHT22;526;51.392;12.448;2023-06-05T14:58:09;27.20;61.40
1075;DHT22;526;51.392;12.448;2023-06-05T15:00:36;27.60;62.90
1075;DHT22;526;51.392;12.448;2023-06-05T15:03:02;28.00;61.80
1075;DHT22;526;51.392;12.448;2023-06-05T15:05:27;28.40;61.30
1075;DHT22;526;51.392;12.448;2023-06-05T15:07:53;28.60;61.20
1075;DHT22;526;51.392;12.448;2023-06-05T15:10:18;28.70;60.70
1075;DHT22;526;51.392;12.448;2023-06-05T15:12:44;28.80;59.90
1075;DHT22;526;51.392;12.448;2023-06-05T15:15:10;28.80;59.70
1075;DHT22;526;51.392;12.448;2023-06-05T15:17:35;28.90;60.80
1075;DHT22;526;51.392;12.448;2023-06-05T15:20:01;29.00;59.80
1075;DHT22;526;51.392;12.448;2023-06-05T15:22:30;29.10;60.00
1075;DHT22;526;51.392;12.448;2023-06-05T15:24:55;29.20;59.50
1075;DHT22;526;51.392;12.448;2023-06-05T15:27:21;29.30;59.90
1075;DHT22;526;51.392;12.448;2023-06-05T15:29:46;29.30;57.60
1075;DHT22;526;51.392;12.448;2023-06-05T15:32:12;29.20;57.80
1075;DHT22;526;51.392;12.448;2023-06-05T15:34:37;29.10;57.00
1075;DHT22;526;51.392;12.448;2023-06-05T15:37:06;29.10;58.00
1075;DHT22;526;51.392;12.448;2023-06-05T15:39:31;29.20;59.10
1075;DHT22;526;51.392;12.448;2023-06-05T15:41:57;29.30;58.20
1075;DHT22;526;51.392;12.448;2023-06-05T15:44:23;29.40;57.20
1075;DHT22;526;51.392;12.448;2023-06-05T15:46:48;29.50;57.20
1075;DHT22;526;51.392;12.448;2023-06-05T15:49:14;29.60;57.40
1075;DHT22;526;51.392;12.448;2023-06-05T15:51:40;29.70;55.30
1075;DHT22;526;51.392;12.448;2023-06-05T15:54:05;29.50;55.70
1075;DHT22;526;51.392;12.448;2023-06-05T15:56:31;29.30;56.10
1075;DHT22;526;51.392;12.448;2023-06-05T15:58:58;29.00;56.30
1075;DHT22;526;51.392;12.448;2023-06-05T16:01:23;28.70;56.50
1075;DHT22;526;51.392;12.448;2023-06-05T16:03:49;28.40;57.80
1075;DHT22;526;51.392;12.448;2023-06-05T16:06:16;28.10;57.90
1075;DHT22;526;51.392;12.448;2023-06-05T16:08:41;28.00;58.60
1075;DHT22;526;51.392;12.448;2023-06-05T16:11:07;28.00;58.90
1075;DHT22;526;51.392;12.448;2023-06-05T16:13:35;27.80;58.10
1075;DHT22;526;51.392;12.448;2023-06-05T16:16:01;27.60;58.40
1075;DHT22;526;51.392;12.448;2023-06-05T16:18:26;27.30;58.60
1075;DHT22;526;51.392;12.448;2023-06-05T16:20:52;27.10;59.10
1075;DHT22;526;51.392;12.448;2023-06-05T16:23:17;27.00;59.40
1075;DHT22;526;51.392;12.448;2023-06-05T16:25:43;26.90;59.80
1075;DHT22;526;51.392;12.448;2023-06-05T16:28:08;26.90;59.20
1075;DHT22;526;51.392;12.448;2023-06-05T16:30:34;26.70;59.50
1075;DHT22;526;51.392;12.448;2023-06-05T16:32:59;26.50;59.10
1075;DHT22;526;51.392;12.448;2023-06-05T16:35:26;26.40;59.90
1075;DHT22;526;51.392;12.448;2023-06-05T16:37:53;26.30;60.20
1075;DHT22;526;51.392;12.448;2023-06-05T16:40:19;26.20;60.40
1075;DHT22;526;51.392;12.448;2023-06-05T16:42:44;26.10;60.40
1075;DHT22;526;51.392;12.448;2023-06-05T16:45:10;26.00;60.60
1075;DHT22;526;51.392;12.448;2023-06-05T16:47:35;26.00;61.00
1075;DHT22;526;51.392;12.448;2023-06-05T16:50:01;25.90;61.10
1075;DHT22;526;51.392;12.448;2023-06-05T16:52:27;25.90;61.80
1075;DHT22;526;51.392;12.448;2023-06-05T16:54:52;25.90;61.30
1075;DHT22;526;51.392;12.448;2023-06-05T16:57:18;25.90;61.10
1075;DHT22;526;51.392;12.448;2023-06-05T16:59:43;25.80;61.10
1075;DHT22;526;51.392;12.448;2023-06-05T17:02:09;25.70;61.50
1075;DHT22;526;51.392;12.448;2023-06-05T17:04:35;25.60;61.40
1075;DHT22;526;51.392;12.448;2023-06-05T17:07:04;25.60;61.50
1075;DHT22;526;51.392;12.448;2023-06-05T17:09:29;25.50;62.20
1075;DHT22;526;51.392;12.448;2023-06-05T17:11:58;25.50;62.20
1075;DHT22;526;51.392;12.448;2023-06-05T17:14:24;25.40;62.50
1075;DHT22;526;51.392;12.448;2023-06-05T17:16:50;25.40;63.10
1075;DHT22;526;51.392;12.448;2023-06-05T17:19:15;25.30;63.10
1075;DHT22;526;51.392;12.448;2023-06-05T17:21:42;25.20;63.20
1075;DHT22;526;51.392;12.448;2023-06-05T17:24:07;25.20;63.40
1075;DHT22;526;51.392;12.448;2023-06-05T17:26:33;25.10;63.70
1075;DHT22;526;51.392;12.448;2023-06-05T17:28:59;25.00;63.90
1075;DHT22;526;51.392;12.448;2023-06-05T17:31:26;24.90;64.10
1075;DHT22;526;51.392;12.448;2023-06-05T17:33:52;24.90;64.30
1075;DHT22;526;51.392;12.448;2023-06-05T17:36:18;24.80;64.60
1075;DHT22;526;51.392;12.448;2023-06-05T17:38:43;24.70;64.70
1075;DHT22;526;51.392;12.448;2023-06-05T17:41:09;24.60;64.60
1075;DHT22;526;51.392;12.448;2023-06-05T17:43:36;24.60;64.70
1075;DHT22;526;51.392;12.448;2023-06-05T17:46:01;24.50;64.90
1075;DHT22;526;51.392;12.448;2023-06-05T17:48:27;24.50;64.90
1075;DHT22;526;51.392;12.448;2023-06-05T17:50:53;24.40;64.90
1075;DHT22;526;51.392;12.448;2023-06-05T17:53:18;24.30;65.00
1075;DHT22;526;51.392;12.448;2023-06-05T17:55:48;24.20;65.10
1075;DHT22;526;51.392;12.448;2023-06-05T17:58:14;24.20;65.10
1075;DHT22;526;51.392;12.448;2023-06-05T18:00:39;24.10;65.10
1075;DHT22;526;51.392;12.448;2023-06-05T18:03:05;24.00;65.10
1075;DHT22;526;51.392;12.448;2023-06-05T18:05:30;23.90;65.30
1075;DHT22;526;51.392;12.448;2023-06-05T18:07:56;23.90;65.60
1075;DHT22;526;51.392;12.448;2023-06-05T18:10:21;23.80;65.70
1075;DHT22;526;51.392;12.448;2023-06-05T18:12:47;23.80;65.90
1075;DHT22;526;51.392;12.448;2023-06-05T18:15:12;23.70;66.00
1075;DHT22;526;51.392;12.448;2023-06-05T18:17:38;23.60;66.00
1075;DHT22;526;51.392;12.448;2023-06-05T18:20:04;23.60;66.00
1075;DHT22;526;51.392;12.448;2023-06-05T18:22:29;23.50;66.10
1075;DHT22;526;51.392;12.448;2023-06-05T18:24:55;23.40;66.20
1075;DHT22;526;51.392;12.448;2023-06-05T18:27:21;23.40;66.40
1075;DHT22;526;51.392;12.448;2023-06-05T18:29:46;23.30;66.20
1075;DHT22;526;51.392;12.448;2023-06-05T18:32:12;23.30;66.20
1075;DHT22;526;51.392;12.448;2023-06-05T18:34:39;23.20;66.50
1075;DHT22;526;51.392;12.448;2023-06-05T18:37:04;23.20;66.30
1075;DHT22;526;51.392;12.448;2023-06-05T18:39:30;23.20;66.40
1075;DHT22;526;51.392;12.448;2023-06-05T18:41:55;23.10;66.60
1075;DHT22;526;51.392;12.448;2023-06-05T18:44:21;23.10;66.70
1075;DHT22;526;51.392;12.448;2023-06-05T18:46:48;23.00;66.60
1075;DHT22;526;51.392;12.448;2023-06-05T18:49:13;23.00;66.70
1075;DHT22;526;51.392;12.448;2023-06-05T18:51:39;22.90;67.00
1075;DHT22;526;51.392;12.448;2023-06-05T18:54:05;22.90;67.20
1075;DHT22;526;51.392;12.448;2023-06-05T18:56:31;22.80;67.80
1075;DHT22;526;51.392;12.448;2023-06-05T18:58:56;22.80;67.90
1075;DHT22;526;51.392;12.448;2023-06-05T19:01:27;22.80;68.30
1075;DHT22;526;51.392;12.448;2023-06-05T19:03:56;22.70;68.80
1075;DHT22;526;51.392;12.448;2023-06-05T19:06:21;22.70;69.70
1075;DHT22;526;51.392;12.448;2023-06-05T19:08:50;22.60;71.10
1075;DHT22;526;51.392;12.448;2023-06-05T19:11:15;22.60;71.40
1075;DHT22;526;51.392;12.448;2023-06-05T19:13:41;22.50;71.40
1075;DHT22;526;51.392;12.448;2023-06-05T19:16:06;22.50;72.00
1075;DHT22;526;51.392;12.448;2023-06-05T19:18:32;22.40;73.00
1075;DHT22;526;51.392;12.448;2023-06-05T19:20:57;22.30;73.10
1075;DHT22;526;51.392;12.448;2023-06-05T19:23:23;22.30;73.20
1075;DHT22;526;51.392;12.448;2023-06-05T19:25:49;22.20;72.80
1075;DHT22;526;51.392;12.448;2023-06-05T19:28:15;22.10;73.20
1075;DHT22;526;51.392;12.448;2023-06-05T19:30:41;22.10;73.60
1075;DHT22;526;51.392;12.448;2023-06-05T19:33:06;22.00;73.10
1075;DHT22;526;51.392;12.448;2023-06-05T19:35:32;21.90;73.00
1075;DHT22;526;51.392;12.448;2023-06-05T19:37:57;21.90;72.80
1075;DHT22;526;51.392;12.448;2023-06-05T19:40:23;21.80;73.10
1075;DHT22;526;51.392;12.448;2023-06-05T19:42:48;21.80;72.90
1075;DHT22;526;51.392;12.448;2023-06-05T19:45:14;21.70;73.20
1075;DHT22;526;51.392;12.448;2023-06-05T19:47:40;21.70;73.10
1075;DHT22;526;51.392;12.448;2023-06-05T19:50:06;21.60;73.60
1075;DHT22;526;51.392;12.448;2023-06-05T19:52:33;21.60;73.80
1075;DHT22;526;51.392;12.448;2023-06-05T19:54:58;21.60;73.80
1075;DHT22;526;51.392;12.448;2023-06-05T19:57:24;21.50;74.30
1075;DHT22;526;51.392;12.448;2023-06-05T19:59:50;21.50;74.80
1075;DHT22;526;51.392;12.448;2023-06-05T20:02:16;21.50;75.00
1075;DHT22;526;51.392;12.448;2023-06-05T20:04:42;21.50;75.60
1075;DHT22;526;51.392;12.448;2023-06-05T20:07:07;21.40;75.70
1075;DHT22;526;51.392;12.448;2023-06-05T20:09:33;21.40;76.40
1075;DHT22;526;51.392;12.448;2023-06-05T20:11:58;21.40;76.80
1075;DHT22;526;51.392;12.448;2023-06-05T20:14:24;21.30;77.30
1075;DHT22;526;51.392;12.448;2023-06-05T20:16:49;21.30;77.90
1075;DHT22;526;51.392;12.448;2023-06-05T20:19:15;21.20;78.60